createdAt,value
2024-01-11T00:01:25.233Z,20
2024-01-11T00:06:41.571Z,33
2024-01-11T00:11:57.934Z,18
2024-01-11T00:17:14.361Z,25
2024-01-11T00:22:30.643Z,19
2024-01-11T00:27:47.026Z,18
2024-01-11T00:33:03.668Z,22
2024-01-11T00:38:19.773Z,23
2024-01-11T00:43:36.112Z,24
2024-01-11T00:48:56.328Z,30
2024-01-11T00:54:09.444Z,25
2024-01-11T00:59:25.822Z,24
2024-01-11T01:04:42.129Z,26
2024-01-11T01:09:58.486Z,21
2024-01-11T01:15:15.413Z,22
2024-01-11T01:20:31.855Z,18
2024-01-11T01:25:48.157Z,21
2024-01-11T01:31:04.598Z,19
2024-01-11T01:36:20.897Z,16
2024-01-11T01:41:37.404Z,24
2024-01-11T01:46:53.730Z,19
2024-01-11T01:52:09.987Z,20
2024-01-11T01:57:26.329Z,29
2024-01-11T02:02:42.780Z,31
2024-01-11T02:07:59.038Z,23
2024-01-11T02:13:15.386Z,23
2024-01-11T02:18:32.128Z,29
2024-01-11T02:23:48.504Z,28
2024-01-11T02:29:05.082Z,25
2024-01-11T02:34:21.439Z,18
2024-01-11T02:39:37.799Z,22
2024-01-11T02:44:54.177Z,23
2024-01-11T02:50:10.596Z,24
2024-01-11T02:55:26.946Z,27
2024-01-11T03:00:43.373Z,28
2024-01-11T03:05:59.931Z,28
2024-01-11T03:11:16.165Z,17
2024-01-11T03:16:32.461Z,20
2024-01-11T03:21:48.790Z,25
2024-01-11T03:27:05.174Z,19
2024-01-11T03:32:21.653Z,22
2024-01-11T03:37:37.930Z,18
2024-01-11T03:42:54.315Z,18
2024-01-11T03:48:10.730Z,14
2024-01-11T03:53:27.099Z,20
2024-01-11T03:58:43.437Z,20
2024-01-11T04:03:59.858Z,19
2024-01-11T04:09:16.176Z,19
2024-01-11T04:14:32.582Z,24
2024-01-11T04:19:48.955Z,21
2024-01-11T04:25:05.321Z,19
2024-01-11T04:30:21.726Z,17
2024-01-11T04:35:38.127Z,21
2024-01-11T04:40:54.428Z,15
2024-01-11T04:46:10.786Z,18
2024-01-11T04:51:27.173Z,17
2024-01-11T04:56:43.662Z,20
2024-01-11T05:01:59.905Z,18
2024-01-11T05:07:16.875Z,22
2024-01-11T05:12:33.241Z,32
2024-01-11T05:17:49.570Z,60
2024-01-11T05:23:05.837Z,31
2024-01-11T05:28:22.189Z,39
2024-01-11T05:33:38.683Z,35
2024-01-11T05:38:54.992Z,32
2024-01-11T05:44:11.382Z,29
2024-01-11T05:49:27.750Z,30
2024-01-11T05:54:44.136Z,30
2024-01-11T06:00:00.713Z,31
2024-01-11T06:05:17.095Z,28
2024-01-11T06:10:33.442Z,38
2024-01-11T06:15:49.797Z,23
2024-01-11T06:21:06.189Z,24
2024-01-11T06:26:22.626Z,35
2024-01-11T06:31:38.740Z,81
2024-01-11T06:36:55.145Z,55
2024-01-11T06:42:11.546Z,51
2024-01-11T06:47:27.777Z,42
2024-01-11T06:52:44.086Z,43
2024-01-11T06:58:00.519Z,43
2024-01-11T07:03:17.454Z,55
2024-01-11T07:08:33.613Z,56
2024-01-11T07:13:50.520Z,60
2024-01-11T07:19:06.964Z,59
2024-01-11T07:24:23.832Z,54
2024-01-11T07:29:40.245Z,37
2024-01-11T07:34:56.691Z,57
2024-01-11T07:40:13.615Z,78
2024-01-11T07:45:29.761Z,49
2024-01-11T07:50:46.973Z,58
2024-01-11T07:56:02.936Z,72
2024-01-11T08:01:19.239Z,64
2024-01-11T08:06:35.676Z,55
2024-01-11T08:11:53.777Z,73
2024-01-11T08:17:09.211Z,66
2024-01-11T08:22:27.710Z,77
2024-01-11T08:27:41.892Z,77
2024-01-11T08:32:58.450Z,69
2024-01-11T08:38:15.365Z,67
2024-01-11T08:43:31.709Z,59
2024-01-11T08:48:48.223Z,78
2024-01-11T08:54:04.884Z,83
2024-01-11T08:59:21.939Z,84
2024-01-11T09:04:38.959Z,86
2024-01-11T09:09:57.525Z,80
2024-01-11T09:15:12.924Z,87
2024-01-11T09:20:29.744Z,160
2024-01-11T09:25:46.142Z,77
2024-01-11T09:31:03.045Z,78
2024-01-11T09:36:19.266Z,68
2024-01-11T09:41:35.768Z,64
2024-01-11T09:46:52.140Z,61
2024-01-11T09:52:08.956Z,57
2024-01-11T09:57:25.371Z,52
2024-01-11T10:02:42.322Z,50
2024-01-11T10:07:58.604Z,41
2024-01-11T10:13:15.599Z,51
2024-01-11T10:18:32.108Z,45
2024-01-11T10:23:48.358Z,45
2024-01-11T10:29:04.711Z,42
2024-01-11T10:34:21.031Z,28
2024-01-11T10:39:37.050Z,35
2024-01-11T10:44:53.381Z,28
2024-01-11T10:50:09.795Z,23
2024-01-11T10:55:26.158Z,23
2024-01-11T11:00:42.245Z,22
2024-01-11T11:05:58.578Z,23
2024-01-11T11:11:14.800Z,22
2024-01-11T11:16:31.037Z,18
2024-01-11T11:21:47.325Z,18
2024-01-11T11:27:03.629Z,16
2024-01-11T11:32:20.016Z,18
2024-01-11T11:37:36.243Z,19
2024-01-11T11:42:52.531Z,18
2024-01-11T11:48:08.861Z,20
2024-01-11T11:53:25.118Z,19
2024-01-11T11:58:41.427Z,15
2024-01-11T12:03:57.700Z,15
2024-01-11T12:09:14.017Z,17
2024-01-11T12:14:30.376Z,16
2024-01-11T12:19:46.604Z,15
2024-01-11T12:25:02.952Z,17
2024-01-11T12:30:19.267Z,17
2024-01-11T12:35:35.508Z,24
2024-01-11T12:40:51.767Z,11
2024-01-11T12:46:08.043Z,10
2024-01-11T12:51:24.530Z,10
2024-01-11T12:56:42.679Z,19
2024-01-11T13:01:56.702Z,24
2024-01-11T13:07:12.962Z,11
2024-01-11T13:12:29.253Z,16
2024-01-11T13:17:45.651Z,13
2024-01-11T13:23:01.869Z,15
2024-01-11T13:28:18.114Z,9
2024-01-11T13:33:34.475Z,12
2024-01-11T13:38:50.776Z,12
2024-01-11T13:44:07.135Z,9
2024-01-11T13:49:23.438Z,9
2024-01-11T13:54:39.583Z,8
2024-01-11T13:59:55.878Z,10
2024-01-11T14:05:12.254Z,10
2024-01-11T14:10:29.002Z,16
2024-01-11T14:15:44.898Z,14
2024-01-11T14:21:01.224Z,16
2024-01-11T14:26:17.497Z,20
2024-01-11T14:31:33.799Z,16
2024-01-11T14:36:50.043Z,14
2024-01-11T14:42:06.376Z,11
2024-01-11T14:47:22.717Z,17
2024-01-11T14:52:38.998Z,24
2024-01-11T14:57:56.500Z,23
2024-01-11T15:03:11.830Z,27
2024-01-11T15:08:28.007Z,22
2024-01-11T15:13:44.288Z,21
2024-01-11T15:19:00.800Z,22
2024-01-11T15:24:17.067Z,29
2024-01-11T15:29:33.369Z,28
2024-01-11T15:34:49.714Z,40
2024-01-11T15:40:06.011Z,43
2024-01-11T15:45:22.362Z,42
2024-01-11T15:50:38.843Z,51
2024-01-11T15:55:55.130Z,42
2024-01-11T16:01:11.530Z,48
2024-01-11T16:06:27.946Z,63
2024-01-11T16:11:44.474Z,59
2024-01-11T16:17:00.462Z,76
2024-01-11T16:22:16.845Z,68
2024-01-11T16:27:33.818Z,56
2024-01-11T16:32:50.828Z,66
2024-01-11T16:38:07.578Z,64
2024-01-11T16:43:23.890Z,47
2024-01-11T16:48:40.436Z,53
2024-01-11T16:53:56.669Z,69
2024-01-11T16:59:13.576Z,59
2024-01-11T17:04:30.212Z,67
2024-01-11T17:09:46.168Z,74
2024-01-11T17:15:02.823Z,75
2024-01-11T17:20:19.092Z,70
2024-01-11T17:25:35.984Z,47
2024-01-11T17:30:53.019Z,98
2024-01-11T17:36:09.668Z,76
2024-01-11T17:41:25.956Z,70
2024-01-11T17:46:42.626Z,66
2024-01-11T17:51:59.893Z,58
2024-01-11T17:57:16.241Z,47
2024-01-11T18:02:32.801Z,43
2024-01-11T18:07:49.152Z,46
2024-01-11T18:13:05.500Z,55
2024-01-11T18:18:22.080Z,53
2024-01-11T18:23:38.429Z,72
2024-01-11T18:28:54.766Z,48
2024-01-11T18:34:11.303Z,51
2024-01-11T18:39:27.537Z,41
2024-01-11T18:44:44.041Z,54
2024-01-11T18:50:00.335Z,51
2024-01-11T18:55:17.674Z,56
2024-01-11T19:00:33.422Z,55
2024-01-11T19:05:50.148Z,49
2024-01-11T19:11:06.263Z,41
2024-01-11T19:16:22.566Z,56
2024-01-11T19:21:38.976Z,42
2024-01-11T19:26:55.970Z,73
2024-01-11T19:32:12.361Z,44
2024-01-11T19:37:29.643Z,52
2024-01-11T19:42:45.806Z,71
2024-01-11T19:48:02.829Z,42
2024-01-11T19:53:19.752Z,82
2024-01-11T19:58:36.653Z,56
2024-01-11T20:03:53.092Z,70
2024-01-11T20:09:09.412Z,37
2024-01-11T20:14:25.607Z,56
2024-01-11T20:19:42.003Z,57
2024-01-11T20:24:58.820Z,43
2024-01-11T20:30:15.902Z,74
2024-01-11T20:35:33.163Z,72
2024-01-11T20:40:50.107Z,68
2024-01-11T20:46:06.442Z,58
2024-01-11T20:51:22.832Z,46
2024-01-11T20:56:39.308Z,47
2024-01-11T21:01:55.534Z,70
2024-01-11T21:07:11.944Z,67
2024-01-11T21:12:28.323Z,57
2024-01-11T21:17:44.917Z,29
2024-01-11T21:23:01.061Z,21
2024-01-11T21:28:17.198Z,38
2024-01-11T21:33:33.610Z,79
2024-01-11T21:38:50.605Z,79
2024-01-11T21:44:07.513Z,68
2024-01-11T21:49:23.929Z,60
2024-01-11T21:54:40.003Z,61
2024-01-11T21:59:56.415Z,40
2024-01-11T22:05:13.174Z,83
2024-01-11T22:10:29.412Z,121
2024-01-11T22:15:45.804Z,76
2024-01-11T22:21:02.307Z,53
2024-01-11T22:26:18.453Z,70
2024-01-11T22:31:34.845Z,55
2024-01-11T22:36:51.131Z,47
2024-01-11T22:42:07.516Z,42
2024-01-11T22:47:24.541Z,49
2024-01-11T22:52:40.803Z,40
2024-01-11T22:57:57.152Z,32
2024-01-11T23:03:13.592Z,32
2024-01-11T23:08:29.958Z,30
2024-01-11T23:13:46.328Z,27
2024-01-11T23:19:02.807Z,36
2024-01-11T23:24:19.077Z,30
2024-01-11T23:29:35.547Z,30
2024-01-11T23:34:51.879Z,27
2024-01-11T23:40:08.203Z,26
2024-01-11T23:45:24.564Z,28
2024-01-11T23:50:41.046Z,28
2024-01-11T23:55:57.287Z,27
